sensor_id;sensor_type;location;lat;lon;timestamp;P1;durP1;ratioP1;P2;durP2;ratioP2
33491;SDS011;20010;51.488;7.232;2022-07-23T00:00:10;13.25;;;12.07;;
33491;SDS011;20010;51.488;7.232;2022-07-23T00:02:40;12.52;;;11.43;;
33491;SDS011;20010;51.488;7.232;2022-07-23T00:05:17;14.38;;;13.07;;
33491;SDS011;20010;51.488;7.232;2022-07-23T00:07:48;13.05;;;11.93;;
33491;SDS011;20010;51.488;7.232;2022-07-23T00:10:25;12.82;;;11.90;;
33491;SDS011;20010;51.488;7.232;2022-07-23T00:12:57;13.45;;;12.25;;
33491;SDS011;20010;51.488;7.232;2022-07-23T00:15:32;13.02;;;11.90;;
33491;SDS011;20010;51.488;7.232;2022-07-23T00:18:04;12.95;;;11.65;;
33491;SDS011;20010;51.488;7.232;2022-07-23T00:20:39;15.10;;;11.95;;
33491;SDS011;20010;51.488;7.232;2022-07-23T00:23:11;12.80;;;11.73;;
33491;SDS011;20010;51.488;7.232;2022-07-23T00:25:45;13.40;;;12.05;;
33491;SDS011;20010;51.488;7.232;2022-07-23T00:28:18;13.63;;;12.43;;
33491;SDS011;20010;51.488;7.232;2022-07-23T00:31:00;13.23;;;12.07;;
33491;SDS011;20010;51.488;7.232;2022-07-23T00:33:29;14.02;;;12.50;;
33491;SDS011;20010;51.488;7.232;2022-07-23T00:36:01;13.70;;;12.60;;
33491;SDS011;20010;51.488;7.232;2022-07-23T00:38:48;13.55;;;12.40;;
33491;SDS011;20010;51.488;7.232;2022-07-23T00:41:18;13.70;;;12.40;;
33491;SDS011;20010;51.488;7.232;2022-07-23T00:43:52;14.55;;;13.13;;
33491;SDS011;20010;51.488;7.232;2022-07-23T00:46:36;13.85;;;12.73;;
33491;SDS011;20010;51.488;7.232;2022-07-23T00:49:13;14.30;;;13.20;;
33491;SDS011;20010;51.488;7.232;2022-07-23T00:52:24;14.60;;;13.38;;
33491;SDS011;20010;51.488;7.232;2022-07-23T00:54:53;13.68;;;12.43;;
33491;SDS011;20010;51.488;7.232;2022-07-23T00:57:28;14.23;;;13.00;;
33491;SDS011;20010;51.488;7.232;2022-07-23T01:00:19;14.02;;;12.73;;
33491;SDS011;20010;51.488;7.232;2022-07-23T01:02:49;13.95;;;12.70;;
33491;SDS011;20010;51.488;7.232;2022-07-23T01:05:18;14.57;;;12.65;;
33491;SDS011;20010;51.488;7.232;2022-07-23T01:07:52;15.07;;;13.73;;
33491;SDS011;20010;51.488;7.232;2022-07-23T01:10:24;15.30;;;13.75;;
33491;SDS011;20010;51.488;7.232;2022-07-23T01:13:06;15.38;;;13.77;;
33491;SDS011;20010;51.488;7.232;2022-07-23T01:15:37;14.68;;;13.45;;
33491;SDS011;20010;51.488;7.232;2022-07-23T01:18:11;14.68;;;13.35;;
33491;SDS011;20010;51.488;7.232;2022-07-23T01:20:54;16.30;;;14.73;;
33491;SDS011;20010;51.488;7.232;2022-07-23T01:23:33;15.70;;;14.20;;
33491;SDS011;20010;51.488;7.232;2022-07-23T01:26:20;16.15;;;14.75;;
33491;SDS011;20010;51.488;7.232;2022-07-23T01:28:53;15.82;;;14.25;;
33491;SDS011;20010;51.488;7.232;2022-07-23T01:31:32;15.38;;;13.85;;
33491;SDS011;20010;51.488;7.232;2022-07-23T01:34:04;18.38;;;15.18;;
33491;SDS011;20010;51.488;7.232;2022-07-23T01:36:45;16.27;;;14.80;;
33491;SDS011;20010;51.488;7.232;2022-07-23T01:39:29;16.17;;;14.88;;
33491;SDS011;20010;51.488;7.232;2022-07-23T01:41:58;16.38;;;14.85;;
33491;SDS011;20010;51.488;7.232;2022-07-23T01:44:28;16.45;;;15.02;;
33491;SDS011;20010;51.488;7.232;2022-07-23T01:47:02;17.50;;;15.93;;
33491;SDS011;20010;51.488;7.232;2022-07-23T01:49:38;16.92;;;15.43;;
33491;SDS011;20010;51.488;7.232;2022-07-23T01:52:10;18.50;;;16.88;;
33491;SDS011;20010;51.488;7.232;2022-07-23T01:54:40;17.55;;;15.80;;
33491;SDS011;20010;51.488;7.232;2022-07-23T01:57:13;18.75;;;16.75;;
33491;SDS011;20010;51.488;7.232;2022-07-23T01:59:42;19.38;;;17.50;;
33491;SDS011;20010;51.488;7.232;2022-07-23T02:02:20;19.63;;;17.33;;
33491;SDS011;20010;51.488;7.232;2022-07-23T02:04:51;18.70;;;16.88;;
33491;SDS011;20010;51.488;7.232;2022-07-23T02:07:18;18.20;;;16.48;;
33491;SDS011;20010;51.488;7.232;2022-07-23T02:09:46;19.35;;;16.63;;
33491;SDS011;20010;51.488;7.232;2022-07-23T02:12:15;18.13;;;16.50;;
33491;SDS011;20010;51.488;7.232;2022-07-23T02:15:08;18.08;;;16.15;;
33491;SDS011;20010;51.488;7.232;2022-07-23T02:17:58;17.58;;;15.98;;
33491;SDS011;20010;51.488;7.232;2022-07-23T02:20:35;22.38;;;17.85;;
33491;SDS011;20010;51.488;7.232;2022-07-23T02:23:06;17.73;;;16.23;;
33491;SDS011;20010;51.488;7.232;2022-07-23T02:25:34;18.77;;;17.00;;
33491;SDS011;20010;51.488;7.232;2022-07-23T02:28:01;19.75;;;17.85;;
33491;SDS011;20010;51.488;7.232;2022-07-23T02:30:34;20.13;;;17.15;;
33491;SDS011;20010;51.488;7.232;2022-07-23T02:33:15;20.52;;;18.02;;
33491;SDS011;20010;51.488;7.232;2022-07-23T02:35:43;18.80;;;17.08;;
33491;SDS011;20010;51.488;7.232;2022-07-23T02:38:16;18.63;;;16.77;;
33491;SDS011;20010;51.488;7.232;2022-07-23T02:40:48;19.35;;;17.33;;
33491;SDS011;20010;51.488;7.232;2022-07-23T02:43:28;17.88;;;16.05;;
33491;SDS011;20010;51.488;7.232;2022-07-23T02:45:57;17.23;;;15.52;;
33491;SDS011;20010;51.488;7.232;2022-07-23T02:48:32;17.73;;;16.08;;
33491;SDS011;20010;51.488;7.232;2022-07-23T02:51:10;17.80;;;16.13;;
33491;SDS011;20010;51.488;7.232;2022-07-23T02:53:51;17.15;;;15.55;;
33491;SDS011;20010;51.488;7.232;2022-07-23T02:56:19;18.05;;;16.33;;
33491;SDS011;20010;51.488;7.232;2022-07-23T02:59:01;16.50;;;14.98;;
33491;SDS011;20010;51.488;7.232;2022-07-23T03:01:32;16.30;;;14.30;;
33491;SDS011;20010;51.488;7.232;2022-07-23T03:04:03;14.85;;;13.52;;
33491;SDS011;20010;51.488;7.232;2022-07-23T03:06:35;16.75;;;15.13;;
33491;SDS011;20010;51.488;7.232;2022-07-23T03:09:03;16.00;;;14.43;;
33491;SDS011;20010;51.488;7.232;2022-07-23T03:11:33;15.95;;;14.50;;
33491;SDS011;20010;51.488;7.232;2022-07-23T03:14:01;16.08;;;14.75;;
33491;SDS011;20010;51.488;7.232;2022-07-23T03:16:35;16.15;;;14.60;;
33491;SDS011;20010;51.488;7.232;2022-07-23T03:19:05;15.40;;;14.10;;
33491;SDS011;20010;51.488;7.232;2022-07-23T03:21:33;16.60;;;15.15;;
33491;SDS011;20010;51.488;7.232;2022-07-23T03:24:08;16.63;;;15.18;;
33491;SDS011;20010;51.488;7.232;2022-07-23T03:26:36;17.05;;;15.45;;
33491;SDS011;20010;51.488;7.232;2022-07-23T03:29:13;16.55;;;15.20;;
33491;SDS011;20010;51.488;7.232;2022-07-23T03:31:41;16.52;;;15.02;;
33491;SDS011;20010;51.488;7.232;2022-07-23T03:34:14;17.40;;;15.68;;
33491;SDS011;20010;51.488;7.232;2022-07-23T03:36:47;17.15;;;15.55;;
33491;SDS011;20010;51.488;7.232;2022-07-23T03:39:17;17.98;;;16.25;;
33491;SDS011;20010;51.488;7.232;2022-07-23T03:41:54;18.42;;;16.75;;
33491;SDS011;20010;51.488;7.232;2022-07-23T03:44:26;17.52;;;16.02;;
33491;SDS011;20010;51.488;7.232;2022-07-23T03:46:57;18.73;;;17.00;;
33491;SDS011;20010;51.488;7.232;2022-07-23T03:49:25;19.33;;;17.63;;
33491;SDS011;20010;51.488;7.232;2022-07-23T03:51:54;19.05;;;17.25;;
33491;SDS011;20010;51.488;7.232;2022-07-23T03:54:33;20.50;;;18.48;;
33491;SDS011;20010;51.488;7.232;2022-07-23T03:57:07;20.15;;;18.00;;
33491;SDS011;20010;51.488;7.232;2022-07-23T03:59:40;17.77;;;16.10;;
33491;SDS011;20010;51.488;7.232;2022-07-23T04:02:21;18.63;;;16.83;;
33491;SDS011;20010;51.488;7.232;2022-07-23T04:04:59;18.15;;;16.52;;
33491;SDS011;20010;51.488;7.232;2022-07-23T04:07:28;18.92;;;17.10;;
33491;SDS011;20010;51.488;7.232;2022-07-23T04:10:02;19.35;;;17.58;;
33491;SDS011;20010;51.488;7.232;2022-07-23T04:15:00;18.88;;;17.17;;
33491;SDS011;20010;51.488;7.232;2022-07-23T04:17:37;19.02;;;17.42;;
33491;SDS011;20010;51.488;7.232;2022-07-23T04:20:07;18.60;;;17.05;;
33491;SDS011;20010;51.488;7.232;2022-07-23T04:22:37;17.55;;;16.13;;
33491;SDS011;20010;51.488;7.232;2022-07-23T04:25:14;17.98;;;16.17;;
33491;SDS011;20010;51.488;7.232;2022-07-23T04:27:46;17.60;;;15.98;;
33491;SDS011;20010;51.488;7.232;2022-07-23T04:30:16;18.35;;;16.77;;
33491;SDS011;20010;51.488;7.232;2022-07-23T04:32:43;18.10;;;16.60;;
33491;SDS011;20010;51.488;7.232;2022-07-23T04:35:12;17.23;;;15.73;;
33491;SDS011;20010;51.488;7.232;2022-07-23T04:37:43;18.05;;;16.33;;
33491;SDS011;20010;51.488;7.232;2022-07-23T04:40:16;18.80;;;17.00;;
33491;SDS011;20010;51.488;7.232;2022-07-23T04:43:01;18.90;;;17.10;;
33491;SDS011;20010;51.488;7.232;2022-07-23T04:45:33;18.23;;;16.73;;
33491;SDS011;20010;51.488;7.232;2022-07-23T04:48:03;15.82;;;14.52;;
33491;SDS011;20010;51.488;7.232;2022-07-23T04:50:32;17.45;;;15.95;;
33491;SDS011;20010;51.488;7.232;2022-07-23T04:53:04;16.40;;;15.02;;
33491;SDS011;20010;51.488;7.232;2022-07-23T04:55:36;17.75;;;16.25;;
33491;SDS011;20010;51.488;7.232;2022-07-23T04:58:09;17.73;;;16.00;;
33491;SDS011;20010;51.488;7.232;2022-07-23T05:00:39;18.50;;;16.70;;
33491;SDS011;20010;51.488;7.232;2022-07-23T05:03:10;17.17;;;15.65;;
33491;SDS011;20010;51.488;7.232;2022-07-23T05:05:39;17.85;;;16.02;;
33491;SDS011;20010;51.488;7.232;2022-07-23T05:08:12;17.85;;;16.05;;
33491;SDS011;20010;51.488;7.232;2022-07-23T05:10:46;18.42;;;16.70;;
33491;SDS011;20010;51.488;7.232;2022-07-23T05:13:16;17.33;;;15.65;;
33491;SDS011;20010;51.488;7.232;2022-07-23T05:15:52;17.23;;;15.70;;
33491;SDS011;20010;51.488;7.232;2022-07-23T05:18:31;17.20;;;15.65;;
33491;SDS011;20010;51.488;7.232;2022-07-23T05:21:01;17.40;;;15.88;;
33491;SDS011;20010;51.488;7.232;2022-07-23T05:23:42;18.13;;;16.60;;
33491;SDS011;20010;51.488;7.232;2022-07-23T05:26:10;17.98;;;16.48;;
33491;SDS011;20010;51.488;7.232;2022-07-23T05:28:43;17.58;;;15.90;;
33491;SDS011;20010;51.488;7.232;2022-07-23T05:31:15;18.13;;;16.52;;
33491;SDS011;20010;51.488;7.232;2022-07-23T05:33:45;19.43;;;17.70;;
33491;SDS011;20010;51.488;7.232;2022-07-23T05:36:20;18.13;;;16.40;;
33491;SDS011;20010;51.488;7.232;2022-07-23T05:38:56;18.33;;;16.63;;
33491;SDS011;20010;51.488;7.232;2022-07-23T05:41:29;20.33;;;18.25;;
33491;SDS011;20010;51.488;7.232;2022-07-23T05:43:56;19.45;;;17.42;;
33491;SDS011;20010;51.488;7.232;2022-07-23T05:46:31;20.17;;;18.27;;
33491;SDS011;20010;51.488;7.232;2022-07-23T05:49:01;18.40;;;16.70;;
33491;SDS011;20010;51.488;7.232;2022-07-23T05:51:34;19.65;;;17.75;;
33491;SDS011;20010;51.488;7.232;2022-07-23T05:54:13;19.90;;;18.20;;
33491;SDS011;20010;51.488;7.232;2022-07-23T05:56:41;19.50;;;17.58;;
33491;SDS011;20010;51.488;7.232;2022-07-23T05:59:12;22.02;;;19.83;;
33491;SDS011;20010;51.488;7.232;2022-07-23T06:01:41;22.75;;;20.48;;
33491;SDS011;20010;51.488;7.232;2022-07-23T06:04:09;25.48;;;22.42;;
33491;SDS011;20010;51.488;7.232;2022-07-23T06:06:44;21.55;;;19.38;;
33491;SDS011;20010;51.488;7.232;2022-07-23T06:09:14;24.70;;;20.40;;
33491;SDS011;20010;51.488;7.232;2022-07-23T06:11:49;22.90;;;20.55;;
33491;SDS011;20010;51.488;7.232;2022-07-23T06:14:17;21.50;;;19.30;;
33491;SDS011;20010;51.488;7.232;2022-07-23T06:16:47;24.63;;;21.42;;
33491;SDS011;20010;51.488;7.232;2022-07-23T06:19:17;22.75;;;20.48;;
33491;SDS011;20010;51.488;7.232;2022-07-23T06:21:48;20.90;;;18.80;;
33491;SDS011;20010;51.488;7.232;2022-07-23T06:24:24;24.02;;;21.20;;
33491;SDS011;20010;51.488;7.232;2022-07-23T06:26:56;26.02;;;21.00;;
33491;SDS011;20010;51.488;7.232;2022-07-23T06:29:32;25.73;;;22.63;;
33491;SDS011;20010;51.488;7.232;2022-07-23T06:32:04;24.65;;;22.00;;
33491;SDS011;20010;51.488;7.232;2022-07-23T06:34:41;23.15;;;20.70;;
33491;SDS011;20010;51.488;7.232;2022-07-23T06:37:14;25.30;;;22.42;;
33491;SDS011;20010;51.488;7.232;2022-07-23T06:39:48;30.33;;;23.42;;
33491;SDS011;20010;51.488;7.232;2022-07-23T06:42:18;24.60;;;21.95;;
33491;SDS011;20010;51.488;7.232;2022-07-23T06:47:28;29.67;;;26.35;;
33491;SDS011;20010;51.488;7.232;2022-07-23T06:49:55;28.52;;;25.67;;
33491;SDS011;20010;51.488;7.232;2022-07-23T06:52:37;24.50;;;21.98;;
33491;SDS011;20010;51.488;7.232;2022-07-23T06:55:08;29.38;;;24.73;;
33491;SDS011;20010;51.488;7.232;2022-07-23T06:57:55;29.23;;;23.70;;
33491;SDS011;20010;51.488;7.232;2022-07-23T07:00:24;28.17;;;25.00;;
33491;SDS011;20010;51.488;7.232;2022-07-23T07:02:55;27.55;;;24.38;;
33491;SDS011;20010;51.488;7.232;2022-07-23T07:05:26;28.17;;;25.15;;
33491;SDS011;20010;51.488;7.232;2022-07-23T07:08:00;29.25;;;26.08;;
33491;SDS011;20010;51.488;7.232;2022-07-23T07:10:29;35.08;;;27.88;;
33491;SDS011;20010;51.488;7.232;2022-07-23T07:13:00;26.80;;;24.05;;
33491;SDS011;20010;51.488;7.232;2022-07-23T07:15:27;26.77;;;24.08;;
33491;SDS011;20010;51.488;7.232;2022-07-23T07:17:56;29.10;;;25.98;;
33491;SDS011;20010;51.488;7.232;2022-07-23T07:20:23;28.25;;;23.95;;
33491;SDS011;20010;51.488;7.232;2022-07-23T07:22:52;24.65;;;22.17;;
33491;SDS011;20010;51.488;7.232;2022-07-23T07:25:21;27.40;;;24.65;;
33491;SDS011;20010;51.488;7.232;2022-07-23T07:27:48;28.92;;;24.33;;
33491;SDS011;20010;51.488;7.232;2022-07-23T07:30:19;25.60;;;22.55;;
33491;SDS011;20010;51.488;7.232;2022-07-23T07:32:59;26.98;;;22.60;;
33491;SDS011;20010;51.488;7.232;2022-07-23T07:35:28;24.58;;;21.98;;
33491;SDS011;20010;51.488;7.232;2022-07-23T07:40:30;23.27;;;20.88;;
33491;SDS011;20010;51.488;7.232;2022-07-23T07:43:00;25.65;;;22.85;;
33491;SDS011;20010;51.488;7.232;2022-07-23T07:45:33;21.55;;;19.38;;
33491;SDS011;20010;51.488;7.232;2022-07-23T07:48:03;21.45;;;19.20;;
33491;SDS011;20010;51.488;7.232;2022-07-23T07:50:33;17.42;;;15.65;;
33491;SDS011;20010;51.488;7.232;2022-07-23T07:53:09;15.98;;;14.27;;
33491;SDS011;20010;51.488;7.232;2022-07-23T07:55:38;18.08;;;15.02;;
33491;SDS011;20010;51.488;7.232;2022-07-23T07:58:16;14.43;;;13.23;;
33491;SDS011;20010;51.488;7.232;2022-07-23T08:00:45;18.17;;;14.70;;
33491;SDS011;20010;51.488;7.232;2022-07-23T08:03:22;15.93;;;14.27;;
33491;SDS011;20010;51.488;7.232;2022-07-23T08:05:52;14.07;;;12.80;;
33491;SDS011;20010;51.488;7.232;2022-07-23T08:08:22;13.77;;;12.35;;
33491;SDS011;20010;51.488;7.232;2022-07-23T08:10:50;13.50;;;12.20;;
33491;SDS011;20010;51.488;7.232;2022-07-23T08:13:18;13.52;;;12.35;;
33491;SDS011;20010;51.488;7.232;2022-07-23T08:15:48;13.10;;;12.00;;
33491;SDS011;20010;51.488;7.232;2022-07-23T08:18:17;13.55;;;12.18;;
33491;SDS011;20010;51.488;7.232;2022-07-23T08:20:55;12.48;;;11.32;;
33491;SDS011;20010;51.488;7.232;2022-07-23T08:23:27;12.38;;;11.35;;
33491;SDS011;20010;51.488;7.232;2022-07-23T08:25:56;12.30;;;11.27;;
33491;SDS011;20010;51.488;7.232;2022-07-23T08:28:26;13.02;;;11.82;;
33491;SDS011;20010;51.488;7.232;2022-07-23T08:30:55;13.02;;;12.00;;
33491;SDS011;20010;51.488;7.232;2022-07-23T08:33:30;11.52;;;10.57;;
33491;SDS011;20010;51.488;7.232;2022-07-23T08:36:03;12.52;;;11.63;;
33491;SDS011;20010;51.488;7.232;2022-07-23T08:38:36;13.57;;;12.30;;
33491;SDS011;20010;51.488;7.232;2022-07-23T08:41:06;14.48;;;13.43;;
33491;SDS011;20010;51.488;7.232;2022-07-23T08:43:36;14.75;;;13.52;;
33491;SDS011;20010;51.488;7.232;2022-07-23T08:46:07;14.75;;;13.75;;
33491;SDS011;20010;51.488;7.232;2022-07-23T08:48:34;14.73;;;13.63;;
33491;SDS011;20010;51.488;7.232;2022-07-23T08:51:07;14.38;;;13.48;;
33491;SDS011;20010;51.488;7.232;2022-07-23T08:53:37;14.50;;;13.60;;
33491;SDS011;20010;51.488;7.232;2022-07-23T08:56:05;13.73;;;12.60;;
33491;SDS011;20010;51.488;7.232;2022-07-23T08:58:36;17.02;;;15.57;;
33491;SDS011;20010;51.488;7.232;2022-07-23T09:01:06;16.58;;;15.27;;
33491;SDS011;20010;51.488;7.232;2022-07-23T09:03:36;16.50;;;15.35;;
33491;SDS011;20010;51.488;7.232;2022-07-23T09:08:57;15.27;;;14.10;;
33491;SDS011;20010;51.488;7.232;2022-07-23T09:11:27;16.65;;;15.55;;
33491;SDS011;20010;51.488;7.232;2022-07-23T09:13:55;16.50;;;15.32;;
33491;SDS011;20010;51.488;7.232;2022-07-23T09:16:30;13.20;;;12.32;;
33491;SDS011;20010;51.488;7.232;2022-07-23T09:19:06;13.00;;;12.00;;
33491;SDS011;20010;51.488;7.232;2022-07-23T09:21:48;12.80;;;11.93;;
33491;SDS011;20010;51.488;7.232;2022-07-23T09:24:24;12.65;;;11.65;;
33491;SDS011;20010;51.488;7.232;2022-07-23T09:26:56;12.98;;;11.90;;
33491;SDS011;20010;51.488;7.232;2022-07-23T09:29:33;12.52;;;11.73;;
33491;SDS011;20010;51.488;7.232;2022-07-23T09:32:03;10.95;;;10.25;;
33491;SDS011;20010;51.488;7.232;2022-07-23T09:34:40;10.63;;;9.77;;
33491;SDS011;20010;51.488;7.232;2022-07-23T09:37:30;10.02;;;9.38;;
33491;SDS011;20010;51.488;7.232;2022-07-23T09:40:11;11.02;;;10.23;;
33491;SDS011;20010;51.488;7.232;2022-07-23T09:42:54;11.23;;;10.35;;
33491;SDS011;20010;51.488;7.232;2022-07-23T09:45:24;10.95;;;10.15;;
33491;SDS011;20010;51.488;7.232;2022-07-23T09:48:16;11.15;;;10.25;;
33491;SDS011;20010;51.488;7.232;2022-07-23T09:51:03;10.55;;;9.88;;
33491;SDS011;20010;51.488;7.232;2022-07-23T09:53:34;10.63;;;9.80;;
33491;SDS011;20010;51.488;7.232;2022-07-23T09:56:09;11.52;;;10.65;;
33491;SDS011;20010;51.488;7.232;2022-07-23T09:58:49;10.50;;;9.63;;
33491;SDS011;20010;51.488;7.232;2022-07-23T10:01:37;10.05;;;9.20;;
33491;SDS011;20010;51.488;7.232;2022-07-23T10:04:08;9.32;;;8.70;;
33491;SDS011;20010;51.488;7.232;2022-07-23T10:06:43;9.32;;;8.70;;
33491;SDS011;20010;51.488;7.232;2022-07-23T10:09:13;8.82;;;8.25;;
33491;SDS011;20010;51.488;7.232;2022-07-23T10:11:52;10.82;;;10.13;;
33491;SDS011;20010;51.488;7.232;2022-07-23T10:14:49;10.35;;;9.75;;
33491;SDS011;20010;51.488;7.232;2022-07-23T10:17:25;9.30;;;8.70;;
33491;SDS011;20010;51.488;7.232;2022-07-23T10:19:58;10.88;;;10.07;;
33491;SDS011;20010;51.488;7.232;2022-07-23T10:22:29;12.70;;;11.80;;
33491;SDS011;20010;51.488;7.232;2022-07-23T10:40:18;10.68;;;9.98;;
33491;SDS011;20010;51.488;7.232;2022-07-23T10:42:50;10.27;;;9.60;;
33491;SDS011;20010;51.488;7.232;2022-07-23T10:47:49;10.10;;;9.50;;
33491;SDS011;20010;51.488;7.232;2022-07-23T10:50:36;9.60;;;9.07;;
33491;SDS011;20010;51.488;7.232;2022-07-23T10:56:50;10.65;;;9.65;;
33491;SDS011;20010;51.488;7.232;2022-07-23T11:00:28;9.60;;;9.00;;
33491;SDS011;20010;51.488;7.232;2022-07-23T11:02:40;10.18;;;9.55;;
33491;SDS011;20010;51.488;7.232;2022-07-23T11:05:15;11.55;;;10.80;;
33491;SDS011;20010;51.488;7.232;2022-07-23T11:16:19;9.82;;;9.23;;
33491;SDS011;20010;51.488;7.232;2022-07-23T11:18:57;9.70;;;9.00;;
33491;SDS011;20010;51.488;7.232;2022-07-23T11:24:03;8.25;;;7.75;;
33491;SDS011;20010;51.488;7.232;2022-07-23T11:26:53;8.40;;;7.90;;
33491;SDS011;20010;51.488;7.232;2022-07-23T11:29:37;8.40;;;7.85;;
33491;SDS011;20010;51.488;7.232;2022-07-23T11:34:53;8.43;;;7.82;;
33491;SDS011;20010;51.488;7.232;2022-07-23T11:37:32;8.15;;;7.75;;
33491;SDS011;20010;51.488;7.232;2022-07-23T11:40:04;9.73;;;8.85;;
33491;SDS011;20010;51.488;7.232;2022-07-23T11:42:37;8.88;;;8.07;;
33491;SDS011;20010;51.488;7.232;2022-07-23T11:45:13;7.85;;;7.35;;
33491;SDS011;20010;51.488;7.232;2022-07-23T11:47:44;7.82;;;7.35;;
33491;SDS011;20010;51.488;7.232;2022-07-23T11:50:13;8.15;;;7.50;;
33491;SDS011;20010;51.488;7.232;2022-07-23T11:52:42;7.90;;;7.50;;
33491;SDS011;20010;51.488;7.232;2022-07-23T11:55:11;9.57;;;8.85;;
33491;SDS011;20010;51.488;7.232;2022-07-23T11:57:44;8.30;;;7.80;;
33491;SDS011;20010;51.488;7.232;2022-07-23T12:00:13;8.77;;;8.27;;
33491;SDS011;20010;51.488;7.232;2022-07-23T12:02:52;8.90;;;8.30;;
33491;SDS011;20010;51.488;7.232;2022-07-23T12:05:30;8.93;;;8.18;;
33491;SDS011;20010;51.488;7.232;2022-07-23T12:08:01;7.32;;;6.93;;
33491;SDS011;20010;51.488;7.232;2022-07-23T12:10:42;9.32;;;8.63;;
33491;SDS011;20010;51.488;7.232;2022-07-23T12:13:15;8.77;;;8.18;;
33491;SDS011;20010;51.488;7.232;2022-07-23T12:15:46;8.20;;;7.68;;
33491;SDS011;20010;51.488;7.232;2022-07-23T12:18:25;8.43;;;7.87;;
33491;SDS011;20010;51.488;7.232;2022-07-23T12:21:03;8.45;;;7.95;;
33491;SDS011;20010;51.488;7.232;2022-07-23T12:26:15;9.60;;;8.90;;
33491;SDS011;20010;51.488;7.232;2022-07-23T12:28:51;9.50;;;8.88;;
33491;SDS011;20010;51.488;7.232;2022-07-23T12:31:25;7.70;;;7.20;;
33491;SDS011;20010;51.488;7.232;2022-07-23T12:33:59;7.50;;;6.90;;
33491;SDS011;20010;51.488;7.232;2022-07-23T12:36:38;7.97;;;7.47;;
33491;SDS011;20010;51.488;7.232;2022-07-23T12:39:07;7.95;;;7.35;;
33491;SDS011;20010;51.488;7.232;2022-07-23T12:41:50;8.77;;;8.18;;
33491;SDS011;20010;51.488;7.232;2022-07-23T12:44:18;8.25;;;7.70;;
33491;SDS011;20010;51.488;7.232;2022-07-23T12:46:51;8.60;;;8.00;;
33491;SDS011;20010;51.488;7.232;2022-07-23T12:49:27;7.93;;;7.32;;
33491;SDS011;20010;51.488;7.232;2022-07-23T12:51:55;7.13;;;6.65;;
33491;SDS011;20010;51.488;7.232;2022-07-23T12:54:27;7.20;;;6.70;;
33491;SDS011;20010;51.488;7.232;2022-07-23T12:56:58;7.15;;;6.55;;
33491;SDS011;20010;51.488;7.232;2022-07-23T12:59:30;7.45;;;6.75;;
33491;SDS011;20010;51.488;7.232;2022-07-23T13:02:02;7.55;;;6.97;;
33491;SDS011;20010;51.488;7.232;2022-07-23T13:04:29;8.02;;;7.55;;
33491;SDS011;20010;51.488;7.232;2022-07-23T13:07:00;7.03;;;6.53;;
33491;SDS011;20010;51.488;7.232;2022-07-23T13:09:31;7.13;;;6.72;;
33491;SDS011;20010;51.488;7.232;2022-07-23T13:12:21;7.03;;;6.60;;
33491;SDS011;20010;51.488;7.232;2022-07-23T13:14:48;6.70;;;6.40;;
33491;SDS011;20010;51.488;7.232;2022-07-23T13:17:18;7.28;;;6.80;;
33491;SDS011;20010;51.488;7.232;2022-07-23T13:19:49;7.60;;;6.97;;
33491;SDS011;20010;51.488;7.232;2022-07-23T13:22:17;7.50;;;7.00;;
33491;SDS011;20010;51.488;7.232;2022-07-23T13:24:45;6.82;;;6.53;;
33491;SDS011;20010;51.488;7.232;2022-07-23T13:27:16;6.80;;;6.50;;
33491;SDS011;20010;51.488;7.232;2022-07-23T13:29:45;7.47;;;6.80;;
33491;SDS011;20010;51.488;7.232;2022-07-23T13:32:17;6.90;;;6.50;;
33491;SDS011;20010;51.488;7.232;2022-07-23T13:34:44;7.20;;;6.70;;
33491;SDS011;20010;51.488;7.232;2022-07-23T13:37:15;7.65;;;7.15;;
33491;SDS011;20010;51.488;7.232;2022-07-23T13:39:43;6.85;;;6.45;;
33491;SDS011;20010;51.488;7.232;2022-07-23T13:42:12;6.40;;;6.10;;
33491;SDS011;20010;51.488;7.232;2022-07-23T13:44:40;7.03;;;6.60;;
33491;SDS011;20010;51.488;7.232;2022-07-23T13:47:12;6.57;;;6.07;;
33491;SDS011;20010;51.488;7.232;2022-07-23T13:49:40;6.88;;;6.47;;
33491;SDS011;20010;51.488;7.232;2022-07-23T13:52:18;6.88;;;6.47;;
33491;SDS011;20010;51.488;7.232;2022-07-23T13:54:50;6.85;;;6.45;;
33491;SDS011;20010;51.488;7.232;2022-07-23T13:57:41;6.55;;;6.10;;
33491;SDS011;20010;51.488;7.232;2022-07-23T14:00:10;7.18;;;6.65;;
33491;SDS011;20010;51.488;7.232;2022-07-23T14:03:00;6.85;;;6.45;;
33491;SDS011;20010;51.488;7.232;2022-07-23T14:05:38;8.13;;;7.68;;
33491;SDS011;20010;51.488;7.232;2022-07-23T14:08:09;6.68;;;6.28;;
33491;SDS011;20010;51.488;7.232;2022-07-23T14:10:40;7.13;;;6.72;;
33491;SDS011;20010;51.488;7.232;2022-07-23T14:13:08;7.03;;;6.60;;
33491;SDS011;20010;51.488;7.232;2022-07-23T14:15:42;6.60;;;6.13;;
33491;SDS011;20010;51.488;7.232;2022-07-23T14:18:18;6.68;;;6.30;;
33491;SDS011;20010;51.488;7.232;2022-07-23T14:20:47;6.50;;;6.10;;
33491;SDS011;20010;51.488;7.232;2022-07-23T14:23:15;6.25;;;5.95;;
33491;SDS011;20010;51.488;7.232;2022-07-23T14:25:46;6.38;;;6.07;;
33491;SDS011;20010;51.488;7.232;2022-07-23T14:28:17;6.60;;;6.15;;
33491;SDS011;20010;51.488;7.232;2022-07-23T14:30:46;6.50;;;6.07;;
33491;SDS011;20010;51.488;7.232;2022-07-23T14:33:20;6.75;;;6.35;;
33491;SDS011;20010;51.488;7.232;2022-07-23T14:35:51;6.50;;;6.03;;
33491;SDS011;20010;51.488;7.232;2022-07-23T14:38:21;6.40;;;6.07;;
33491;SDS011;20010;51.488;7.232;2022-07-23T14:40:51;6.55;;;6.20;;
33491;SDS011;20010;51.488;7.232;2022-07-23T14:43:23;6.95;;;6.43;;
33491;SDS011;20010;51.488;7.232;2022-07-23T14:46:00;6.30;;;6.00;;
33491;SDS011;20010;51.488;7.232;2022-07-23T14:48:36;7.03;;;6.63;;
33491;SDS011;20010;51.488;7.232;2022-07-23T14:51:05;6.25;;;5.85;;
33491;SDS011;20010;51.488;7.232;2022-07-23T14:53:37;5.85;;;5.40;;
33491;SDS011;20010;51.488;7.232;2022-07-23T14:56:04;6.47;;;6.03;;
33491;SDS011;20010;51.488;7.232;2022-07-23T14:58:43;5.85;;;5.45;;
33491;SDS011;20010;51.488;7.232;2022-07-23T15:01:20;5.60;;;5.30;;
33491;SDS011;20010;51.488;7.232;2022-07-23T15:03:53;6.70;;;6.32;;
33491;SDS011;20010;51.488;7.232;2022-07-23T15:06:44;6.68;;;6.18;;
33491;SDS011;20010;51.488;7.232;2022-07-23T15:11:44;6.38;;;5.95;;
33491;SDS011;20010;51.488;7.232;2022-07-23T15:14:15;6.45;;;6.10;;
33491;SDS011;20010;51.488;7.232;2022-07-23T15:16:57;6.65;;;6.25;;
33491;SDS011;20010;51.488;7.232;2022-07-23T15:19:47;6.38;;;6.07;;
33491;SDS011;20010;51.488;7.232;2022-07-23T15:22:17;5.75;;;5.45;;
33491;SDS011;20010;51.488;7.232;2022-07-23T15:24:50;6.55;;;6.15;;
33491;SDS011;20010;51.488;7.232;2022-07-23T15:27:17;6.75;;;6.28;;
33491;SDS011;20010;51.488;7.232;2022-07-23T15:29:46;6.15;;;5.85;;
33491;SDS011;20010;51.488;7.232;2022-07-23T15:32:19;6.03;;;5.72;;
33491;SDS011;20010;51.488;7.232;2022-07-23T15:34:47;7.10;;;6.40;;
33491;SDS011;20010;51.488;7.232;2022-07-23T15:37:17;6.60;;;6.20;;
33491;SDS011;20010;51.488;7.232;2022-07-23T15:39:46;6.28;;;5.97;;
33491;SDS011;20010;51.488;7.232;2022-07-23T15:42:14;6.78;;;6.38;;
33491;SDS011;20010;51.488;7.232;2022-07-23T15:44:46;6.80;;;6.28;;
33491;SDS011;20010;51.488;7.232;2022-07-23T15:47:18;6.97;;;6.57;;
33491;SDS011;20010;51.488;7.232;2022-07-23T15:49:56;7.25;;;6.53;;
33491;SDS011;20010;51.488;7.232;2022-07-23T15:52:31;6.50;;;6.07;;
33491;SDS011;20010;51.488;7.232;2022-07-23T15:55:01;7.03;;;6.50;;
33491;SDS011;20010;51.488;7.232;2022-07-23T15:57:42;7.00;;;6.60;;